Algoma, West Virginia
Current Conditions -  °F | °C
As of 12:52 PM on Friday 19 Dec 2014 (Local Time) from KBLF Reporting Station
Clear Clear  
Wind Chill: 30°   Ceiling: Unl
Heat Index: 35°   Visibility: 10mi
Dew Point: 23°   Wind: 6mph
Humidity: 61%   Direction: 310°NW
Pressure: 30.12"   Gusts: NA
Location:  37.3807°N, 81.4099°W
Report Text: KBLF 191752Z AUTO 31005KT 10SM CLR 02/M05 A3012 RMK AO2 SLP215 T00171050 10017 21028 58010
Loading
Personal Weather Stations






























Interactive Weather Map New forecast layout! Learn more

10-Day Weather Forecast

Advertisements
Track Severe Weather on mobile